createdAt,value
2018-10-01T00:00:09.969Z,9.40
2018-10-01T00:02:38.436Z,8.00
2018-10-01T00:05:06.845Z,8.77
2018-10-01T00:07:35.233Z,10.57
2018-10-01T00:10:03.926Z,10.40
2018-10-01T00:12:32.476Z,11.80
2018-10-01T00:15:00.907Z,11.67
2018-10-01T00:17:29.460Z,8.43
2018-10-01T00:20:03.512Z,11.13
2018-10-01T00:22:37.308Z,10.80
2018-10-01T00:25:06.215Z,10.23
2018-10-01T00:27:34.690Z,11.57
2018-10-01T00:30:03.297Z,11.03
2018-10-01T00:32:31.754Z,13.93
2018-10-01T00:35:00.208Z,10.23
2018-10-01T00:37:28.812Z,9.30
2018-10-01T00:39:57.362Z,12.50
2018-10-01T00:42:25.910Z,10.53
2018-10-01T00:44:54.388Z,12.77
2018-10-01T00:47:22.875Z,10.63
2018-10-01T00:49:51.452Z,12.77
2018-10-01T00:52:20.025Z,9.60
2018-10-01T00:54:48.567Z,9.40
2018-10-01T00:57:17.089Z,12.00
2018-10-01T00:59:46.899Z,8.33
2018-10-01T01:02:15.522Z,11.47
2018-10-01T01:04:44.060Z,10.50
2018-10-01T01:07:12.695Z,12.47
2018-10-01T01:09:41.082Z,10.60
2018-10-01T01:12:09.419Z,12.30
2018-10-01T01:14:38.214Z,9.60
2018-10-01T01:17:06.704Z,15.10
2018-10-01T01:19:35.129Z,10.80
2018-10-01T01:22:03.473Z,12.07
2018-10-01T01:24:32.015Z,10.37
2018-10-01T01:27:00.489Z,9.50
2018-10-01T01:29:28.911Z,10.40
2018-10-01T01:31:57.344Z,11.07
2018-10-01T01:34:25.855Z,8.50
2018-10-01T01:36:54.277Z,11.70
2018-10-01T01:39:22.633Z,12.63
2018-10-01T01:41:50.999Z,18.93
2018-10-01T01:44:19.461Z,15.17
2018-10-01T01:46:47.970Z,15.77
2018-10-01T01:49:16.316Z,18.03
2018-10-01T01:51:44.664Z,18.40
2018-10-01T01:54:12.999Z,15.47
2018-10-01T01:56:41.401Z,14.80
2018-10-01T01:59:09.741Z,26.43
2018-10-01T02:01:38.081Z,15.07
2018-10-01T02:04:06.408Z,18.63
2018-10-01T02:06:34.976Z,11.87
2018-10-01T02:09:03.420Z,14.57
2018-10-01T02:11:31.861Z,14.27
2018-10-01T02:14:00.284Z,16.70
2018-10-01T02:16:28.667Z,14.97
2018-10-01T02:18:57.039Z,15.00
2018-10-01T02:21:25.360Z,15.87
2018-10-01T02:23:53.677Z,13.47
2018-10-01T02:26:22.133Z,14.17
2018-10-01T02:28:50.724Z,15.93
2018-10-01T02:31:19.049Z,13.00
2018-10-01T02:33:47.371Z,17.90
2018-10-01T02:36:15.944Z,18.27
2018-10-01T02:38:44.368Z,14.67
2018-10-01T02:41:12.656Z,14.57
2018-10-01T02:43:41.019Z,16.90
2018-10-01T02:46:09.396Z,18.87
2018-10-01T02:48:37.822Z,16.93
2018-10-01T02:51:06.213Z,16.37
2018-10-01T02:53:39.808Z,13.60
2018-10-01T02:56:08.203Z,15.67
2018-10-01T02:58:36.513Z,12.40
2018-10-01T03:01:04.800Z,17.97
2018-10-01T03:03:33.248Z,17.27
2018-10-01T03:06:01.614Z,19.37
2018-10-01T03:08:29.935Z,17.27
2018-10-01T03:10:58.315Z,17.00
2018-10-01T03:13:26.695Z,13.83
2018-10-01T03:15:55.127Z,15.43
2018-10-01T03:18:23.448Z,16.33
2018-10-01T03:20:51.786Z,21.20
2018-10-01T03:23:20.240Z,18.63
2018-10-01T03:25:48.544Z,15.30
2018-10-01T03:28:16.856Z,18.97
2018-10-01T03:30:45.159Z,16.93
2018-10-01T03:33:13.506Z,11.90
2018-10-01T03:35:41.813Z,15.97
2018-10-01T03:38:10.131Z,14.97
2018-10-01T03:40:38.411Z,16.80
2018-10-01T03:43:07.125Z,16.57
2018-10-01T03:45:35.436Z,13.03
2018-10-01T03:48:03.739Z,16.63
2018-10-01T03:50:32.074Z,19.23
2018-10-01T03:53:00.512Z,14.30
2018-10-01T03:55:28.828Z,19.17
2018-10-01T03:57:57.111Z,20.27
2018-10-01T04:00:25.498Z,16.17
2018-10-01T04:02:54.859Z,21.83
2018-10-01T04:05:23.197Z,19.87
2018-10-01T04:07:51.582Z,18.10
2018-10-01T04:10:19.960Z,22.20
2018-10-01T04:12:48.981Z,16.03
2018-10-01T04:15:17.440Z,19.77
2018-10-01T04:17:45.750Z,17.43
2018-10-01T04:20:14.060Z,19.80
2018-10-01T04:22:42.463Z,22.37
2018-10-01T04:25:11.443Z,19.50
2018-10-01T04:27:39.755Z,22.37
2018-10-01T04:30:10.629Z,21.60
2018-10-01T04:32:38.967Z,20.07
2018-10-01T04:35:07.532Z,22.03
2018-10-01T04:37:35.901Z,17.67
2018-10-01T04:40:04.368Z,20.10
2018-10-01T04:42:32.732Z,20.43
2018-10-01T04:45:01.092Z,21.80
2018-10-01T04:47:29.505Z,22.30
2018-10-01T04:49:57.929Z,22.73
2018-10-01T04:52:30.370Z,21.90
2018-10-01T04:55:03.100Z,22.37
2018-10-01T04:57:31.480Z,25.33
2018-10-01T05:00:00.939Z,23.87
2018-10-01T05:02:32.810Z,22.97
2018-10-01T05:05:01.124Z,22.77
2018-10-01T05:07:29.691Z,27.20
2018-10-01T05:09:58.164Z,27.40
2018-10-01T05:12:26.463Z,28.30
2018-10-01T05:14:54.810Z,26.20
2018-10-01T05:17:23.119Z,23.80
2018-10-01T05:19:51.570Z,28.00
2018-10-01T05:22:19.886Z,31.50
2018-10-01T05:24:48.224Z,25.40
2018-10-01T05:27:16.635Z,25.07
2018-10-01T05:29:44.987Z,25.07
2018-10-01T05:32:13.279Z,22.73
2018-10-01T05:34:41.583Z,23.67
2018-10-01T05:37:09.939Z,22.20
2018-10-01T05:39:38.324Z,19.40
2018-10-01T05:42:07.052Z,22.50
2018-10-01T05:44:36.620Z,21.47
2018-10-01T05:47:05.334Z,24.43
2018-10-01T05:49:33.738Z,21.27
2018-10-01T05:52:02.041Z,20.17
2018-10-01T05:54:30.382Z,21.27
2018-10-01T05:56:58.663Z,23.77
2018-10-01T05:59:27.054Z,27.80
2018-10-01T06:01:55.647Z,24.00
2018-10-01T06:04:25.278Z,34.10
2018-10-01T06:06:53.679Z,20.40
2018-10-01T06:09:22.009Z,21.53
2018-10-01T06:11:50.472Z,23.23
2018-10-01T06:14:18.915Z,22.90
2018-10-01T06:16:47.246Z,33.90
2018-10-01T06:19:17.807Z,28.53
2018-10-01T06:21:46.303Z,24.43
2018-10-01T06:24:14.751Z,30.70
2018-10-01T06:26:43.115Z,28.17
2018-10-01T06:29:11.517Z,28.33
2018-10-01T06:31:39.856Z,26.00
2018-10-01T06:34:08.244Z,26.40
2018-10-01T06:36:37.145Z,29.47
2018-10-01T06:39:07.720Z,26.53
2018-10-01T06:41:36.367Z,26.77
2018-10-01T06:44:04.673Z,28.03
2018-10-01T06:46:32.989Z,24.83
2018-10-01T06:49:01.338Z,23.60
2018-10-01T06:51:29.655Z,26.27
2018-10-01T06:53:57.984Z,25.37
2018-10-01T06:56:26.311Z,22.67
2018-10-01T06:58:54.855Z,21.23
2018-10-01T07:01:23.216Z,22.63
2018-10-01T07:03:51.503Z,32.50
2018-10-01T07:06:19.862Z,26.80
2018-10-01T07:08:48.195Z,22.63
2018-10-01T07:11:16.591Z,26.30
2018-10-01T07:13:44.839Z,26.00
2018-10-01T07:16:13.263Z,21.17
2018-10-01T07:18:41.694Z,22.90
2018-10-01T07:21:09.988Z,20.67
2018-10-01T07:26:12.952Z,19.60
2018-10-01T07:28:41.285Z,20.60
2018-10-01T07:31:09.880Z,24.20
2018-10-01T07:33:38.207Z,22.50
2018-10-01T07:36:06.726Z,22.20
2018-10-01T07:38:35.044Z,22.37
2018-10-01T07:41:03.467Z,18.37
2018-10-01T07:43:31.783Z,20.67
2018-10-01T07:46:00.200Z,19.50
2018-10-01T07:48:28.574Z,16.70
2018-10-01T07:50:57.434Z,18.93
2018-10-01T07:53:25.813Z,17.47
2018-10-01T07:55:54.106Z,15.83
2018-10-01T07:58:22.533Z,18.73
2018-10-01T08:00:50.986Z,18.47
2018-10-01T08:03:19.327Z,16.40
2018-10-01T08:05:47.693Z,14.37
2018-10-01T08:08:16.067Z,19.67
2018-10-01T08:10:44.407Z,13.10
2018-10-01T08:13:12.696Z,13.50
2018-10-01T08:15:41.299Z,11.93
2018-10-01T08:18:09.571Z,21.87
2018-10-01T08:20:37.961Z,17.73
2018-10-01T08:23:06.516Z,18.60
2018-10-01T08:25:34.963Z,17.57
2018-10-01T08:28:03.460Z,33.07
2018-10-01T08:30:32.037Z,19.90
2018-10-01T08:33:00.375Z,18.57
2018-10-01T08:35:28.773Z,29.33
2018-10-01T08:37:57.094Z,32.97
2018-10-01T08:40:26.061Z,15.90
2018-10-01T08:42:54.604Z,18.83
2018-10-01T08:45:22.995Z,14.00
2018-10-01T08:47:51.375Z,10.73
2018-10-01T08:50:56.693Z,14.67
2018-10-01T08:54:30.122Z,7.33
2018-10-01T08:56:58.456Z,7.83
2018-10-01T08:59:26.791Z,11.37
2018-10-01T09:01:55.135Z,10.13
2018-10-01T09:04:23.635Z,10.37
2018-10-01T09:06:52.010Z,12.87
2018-10-01T09:09:20.299Z,10.53
2018-10-01T09:11:48.701Z,6.67
2018-10-01T09:14:17.074Z,11.57
2018-10-01T09:16:45.411Z,7.67
2018-10-01T09:19:13.713Z,9.13
2018-10-01T09:21:42.122Z,7.00
2018-10-01T09:24:10.915Z,12.03
2018-10-01T09:26:39.332Z,5.73
2018-10-01T09:29:07.619Z,11.33
2018-10-01T09:31:36.055Z,7.73
2018-10-01T09:34:04.514Z,6.37
2018-10-01T09:36:32.937Z,8.87
2018-10-01T09:39:01.247Z,7.43
2018-10-01T09:41:29.600Z,10.67
2018-10-01T09:43:57.986Z,10.57
2018-10-01T09:46:26.567Z,8.33
2018-10-01T09:48:54.908Z,6.57
2018-10-01T09:51:23.270Z,11.27
2018-10-01T09:53:51.659Z,10.67
2018-10-01T09:56:20.093Z,7.90
2018-10-01T09:58:48.393Z,7.30
2018-10-01T10:01:17.188Z,5.30
2018-10-01T10:03:45.637Z,5.07
2018-10-01T10:06:13.955Z,6.00
2018-10-01T10:08:42.349Z,3.60
2018-10-01T10:11:10.697Z,7.60
2018-10-01T10:13:39.113Z,4.67
2018-10-01T10:16:07.537Z,3.60
2018-10-01T10:18:35.870Z,6.00
2018-10-01T10:21:04.276Z,7.53
2018-10-01T10:23:32.665Z,5.57
2018-10-01T10:26:01.111Z,4.67
2018-10-01T10:28:29.660Z,5.90
2018-10-01T10:30:57.973Z,6.60
2018-10-01T10:33:26.376Z,7.17
2018-10-01T10:35:54.709Z,5.63
2018-10-01T10:38:23.089Z,7.33
2018-10-01T10:40:51.416Z,6.37
2018-10-01T10:43:19.828Z,6.47
2018-10-01T10:45:48.158Z,5.87
2018-10-01T10:48:16.447Z,7.03
2018-10-01T10:50:44.760Z,7.20
2018-10-01T10:53:13.051Z,5.03
2018-10-01T10:55:41.336Z,4.17
2018-10-01T10:58:09.647Z,4.73
2018-10-01T11:00:37.924Z,5.87
2018-10-01T11:03:06.307Z,6.43
2018-10-01T11:05:34.683Z,5.53
2018-10-01T11:08:03.059Z,3.73
2018-10-01T11:10:31.378Z,4.80
2018-10-01T11:12:59.811Z,8.23
2018-10-01T11:15:28.143Z,4.90
2018-10-01T11:17:56.448Z,3.97
2018-10-01T11:20:24.973Z,6.00
2018-10-01T11:22:53.488Z,4.20
2018-10-01T11:25:21.907Z,3.23
2018-10-01T11:27:50.183Z,3.63
2018-10-01T11:30:18.664Z,6.03
2018-10-01T11:32:47.101Z,3.00
2018-10-01T11:35:15.779Z,3.70
2018-10-01T11:37:43.948Z,3.43
2018-10-01T11:40:12.279Z,2.73
2018-10-01T11:42:40.735Z,7.07
2018-10-01T11:45:09.126Z,5.10
2018-10-01T11:47:37.447Z,3.90
2018-10-01T11:50:05.742Z,4.60
2018-10-01T11:52:34.089Z,2.73
2018-10-01T11:55:02.409Z,3.37
2018-10-01T11:57:30.774Z,11.97
2018-10-01T11:59:59.031Z,2.93
2018-10-01T12:02:27.455Z,3.57
2018-10-01T12:04:55.751Z,1.93
2018-10-01T12:07:24.118Z,2.37
2018-10-01T12:09:52.482Z,3.57
2018-10-01T12:12:20.763Z,5.70
2018-10-01T12:14:49.160Z,5.27
2018-10-01T12:17:17.455Z,1.87
2018-10-01T12:19:45.772Z,3.33
2018-10-01T12:22:14.189Z,4.77
2018-10-01T12:24:42.411Z,4.17
2018-10-01T12:27:10.701Z,3.53
2018-10-01T12:29:39.112Z,3.07
2018-10-01T12:32:07.446Z,3.53
2018-10-01T12:34:35.772Z,2.07
2018-10-01T12:37:04.125Z,1.47
2018-10-01T12:39:32.483Z,3.47
2018-10-01T12:42:00.804Z,3.10
2018-10-01T12:44:29.117Z,2.87
2018-10-01T12:46:57.562Z,3.23
2018-10-01T12:49:25.903Z,3.53
2018-10-01T12:51:54.240Z,4.43
2018-10-01T12:54:25.603Z,4.17
2018-10-01T12:56:53.899Z,1.97
2018-10-01T12:59:22.316Z,8.93
2018-10-01T13:01:50.916Z,3.10
2018-10-01T13:04:19.300Z,2.63
2018-10-01T13:06:47.654Z,3.70
2018-10-01T13:09:16.063Z,2.07
2018-10-01T13:11:44.497Z,2.60
2018-10-01T13:14:12.889Z,3.83
2018-10-01T13:16:41.236Z,1.07
2018-10-01T13:19:09.677Z,1.90
2018-10-01T13:21:38.235Z,2.07
2018-10-01T13:24:06.758Z,2.30
2018-10-01T13:26:35.031Z,1.63
2018-10-01T13:29:03.364Z,1.23
2018-10-01T13:31:31.715Z,3.17
2018-10-01T13:34:00.035Z,1.50
2018-10-01T13:36:28.369Z,1.93
2018-10-01T13:38:56.699Z,3.30
2018-10-01T13:41:25.048Z,1.73
2018-10-01T13:43:53.468Z,4.10
2018-10-01T13:46:21.771Z,5.93
2018-10-01T13:48:50.163Z,3.23
2018-10-01T13:51:18.491Z,2.10
2018-10-01T13:53:46.853Z,2.90
2018-10-01T13:56:15.226Z,8.63
2018-10-01T13:58:43.584Z,4.73
2018-10-01T14:01:12.040Z,6.80
2018-10-01T14:03:40.390Z,2.50
2018-10-01T14:06:08.824Z,1.43
2018-10-01T14:08:37.137Z,6.47
2018-10-01T14:11:05.644Z,4.00
2018-10-01T14:13:33.994Z,5.13
2018-10-01T14:16:02.334Z,5.30
2018-10-01T14:18:30.691Z,3.77
2018-10-01T14:20:59.023Z,1.33
2018-10-01T14:23:27.350Z,2.40
2018-10-01T14:25:55.667Z,2.90
2018-10-01T14:28:24.077Z,2.30
2018-10-01T14:30:52.547Z,1.30
2018-10-01T14:33:20.928Z,4.43
2018-10-01T14:35:49.235Z,2.27
2018-10-01T14:38:17.704Z,6.13
2018-10-01T14:40:46.060Z,4.57
2018-10-01T14:43:14.359Z,5.33
2018-10-01T14:45:42.720Z,1.50
2018-10-01T14:48:11.118Z,2.40
2018-10-01T14:50:39.501Z,1.47
2018-10-01T14:53:07.841Z,1.40
2018-10-01T14:55:36.175Z,2.13
2018-10-01T14:58:04.620Z,2.20
2018-10-01T15:00:33.184Z,1.33
2018-10-01T15:03:01.369Z,1.87
2018-10-01T15:05:29.660Z,3.27
2018-10-01T15:07:58.025Z,2.97
2018-10-01T15:10:26.378Z,2.87
2018-10-01T15:12:54.719Z,1.93
2018-10-01T15:15:23.024Z,2.53
2018-10-01T15:17:51.471Z,2.07
2018-10-01T15:20:19.842Z,2.20
2018-10-01T15:22:48.202Z,2.10
2018-10-01T15:25:16.507Z,1.87
2018-10-01T15:27:44.884Z,1.97
2018-10-01T15:30:13.320Z,1.70
2018-10-01T15:32:41.523Z,2.13
2018-10-01T15:35:09.904Z,2.00
2018-10-01T15:37:38.326Z,2.50
2018-10-01T15:40:06.859Z,2.00
2018-10-01T15:42:35.182Z,3.57
2018-10-01T15:45:03.551Z,3.23
2018-10-01T15:47:31.913Z,5.43
2018-10-01T15:50:00.395Z,7.10
2018-10-01T15:52:28.697Z,2.70
2018-10-01T15:54:57.046Z,5.60
2018-10-01T15:57:32.017Z,4.10
2018-10-01T16:00:00.389Z,4.13
2018-10-01T16:02:28.777Z,4.97
2018-10-01T16:04:57.098Z,6.97
2018-10-01T16:07:25.485Z,3.57
2018-10-01T16:09:53.809Z,4.27
2018-10-01T16:12:22.124Z,5.03
2018-10-01T16:14:50.452Z,4.80
2018-10-01T16:17:18.937Z,2.20
2018-10-01T16:19:47.341Z,5.07
2018-10-01T16:22:15.701Z,5.77
2018-10-01T16:24:44.042Z,3.77
2018-10-01T16:27:12.594Z,2.70
2018-10-01T16:29:41.007Z,10.40
2018-10-01T16:32:09.334Z,6.57
2018-10-01T16:34:37.680Z,8.83
2018-10-01T16:37:06.427Z,6.97
2018-10-01T16:39:34.975Z,5.67
2018-10-01T16:42:03.474Z,8.07
2018-10-01T16:44:38.179Z,4.63
2018-10-01T16:47:06.677Z,6.00
2018-10-01T16:49:35.061Z,4.17
2018-10-01T16:52:03.402Z,3.77
2018-10-01T16:54:31.752Z,7.27
2018-10-01T16:57:00.456Z,6.80
2018-10-01T16:59:28.856Z,6.50
2018-10-01T17:01:57.179Z,5.50
2018-10-01T17:04:26.415Z,5.03
2018-10-01T17:06:54.795Z,10.27
2018-10-01T17:09:23.226Z,16.83
2018-10-01T17:11:51.567Z,6.53
2018-10-01T17:14:19.921Z,8.03
2018-10-01T17:16:48.249Z,7.33
2018-10-01T17:19:16.817Z,4.27
2018-10-01T17:21:45.154Z,8.90
2018-10-01T17:24:13.475Z,9.07
2018-10-01T17:26:41.925Z,7.47
2018-10-01T17:29:10.294Z,7.27
2018-10-01T17:31:39.822Z,6.40
2018-10-01T17:34:08.211Z,7.00
2018-10-01T17:36:36.659Z,3.20
2018-10-01T17:39:07.859Z,8.73
2018-10-01T17:41:36.571Z,8.37
2018-10-01T17:44:05.160Z,8.00
2018-10-01T17:46:33.575Z,6.17
2018-10-01T17:49:02.086Z,6.53
2018-10-01T17:51:30.603Z,8.37
2018-10-01T17:53:58.954Z,5.07
2018-10-01T17:56:27.377Z,2.50
2018-10-01T17:58:55.730Z,6.40
2018-10-01T18:01:24.039Z,4.93
2018-10-01T18:03:52.767Z,3.57
2018-10-01T18:06:21.208Z,5.50
2018-10-01T18:08:49.732Z,5.73
2018-10-01T18:11:18.077Z,4.43
2018-10-01T18:13:46.435Z,4.13
2018-10-01T18:16:14.880Z,4.43
2018-10-01T18:18:43.315Z,3.33
2018-10-01T18:21:11.653Z,6.47
2018-10-01T18:23:40.085Z,5.63
2018-10-01T18:26:08.621Z,6.10
2018-10-01T18:28:37.009Z,5.13
2018-10-01T18:31:05.340Z,3.47
2018-10-01T18:33:33.671Z,4.13
2018-10-01T18:36:02.202Z,5.47
2018-10-01T18:38:30.574Z,7.70
2018-10-01T18:40:58.978Z,5.87
2018-10-01T18:43:27.784Z,6.23
2018-10-01T18:45:56.216Z,5.60
2018-10-01T18:48:24.753Z,7.50
2018-10-01T18:50:53.242Z,5.80
2018-10-01T18:53:22.083Z,6.00
2018-10-01T18:55:50.469Z,6.83
2018-10-01T18:58:19.375Z,4.53
2018-10-01T19:00:48.042Z,8.07
2018-10-01T19:03:16.944Z,7.40
2018-10-01T19:05:45.343Z,6.97
2018-10-01T19:08:13.693Z,6.50
2018-10-01T19:10:42.104Z,9.80
2018-10-01T19:13:10.454Z,5.60
2018-10-01T19:15:38.832Z,6.77
2018-10-01T19:18:07.303Z,4.63
2018-10-01T19:20:35.663Z,4.57
2018-10-01T19:23:04.060Z,4.50
2018-10-01T19:25:32.541Z,6.10
2018-10-01T19:28:00.969Z,5.80
2018-10-01T19:30:29.756Z,5.70
2018-10-01T19:32:58.145Z,7.37
2018-10-01T19:35:26.856Z,5.07
2018-10-01T19:37:55.536Z,7.27
2018-10-01T19:40:24.029Z,5.60
2018-10-01T19:42:52.448Z,5.23
2018-10-01T19:45:22.093Z,4.83
2018-10-01T19:47:50.482Z,3.73
2018-10-01T19:50:18.841Z,4.50
2018-10-01T19:52:47.318Z,10.23
2018-10-01T19:55:15.678Z,4.73
2018-10-01T19:57:44.199Z,3.03
2018-10-01T20:00:12.607Z,3.10
2018-10-01T20:02:40.920Z,6.50
2018-10-01T20:05:09.717Z,3.07
2018-10-01T20:07:38.071Z,3.67
2018-10-01T20:10:06.759Z,3.30
2018-10-01T20:12:35.053Z,4.73
2018-10-01T20:15:03.498Z,4.43
2018-10-01T20:17:31.789Z,5.17
2018-10-01T20:20:00.197Z,3.43
2018-10-01T20:22:28.484Z,4.33
2018-10-01T20:24:56.933Z,7.10
2018-10-01T20:27:25.345Z,6.50
2018-10-01T20:29:53.847Z,2.67
2018-10-01T20:32:22.191Z,7.00
2018-10-01T20:34:50.523Z,3.43
2018-10-01T20:37:18.865Z,6.07
2018-10-01T20:39:47.226Z,2.27
2018-10-01T20:42:15.559Z,6.57
2018-10-01T20:44:43.919Z,3.23
2018-10-01T20:47:12.668Z,2.47
2018-10-01T20:49:41.308Z,6.93
2018-10-01T20:52:09.741Z,5.47
2018-10-01T20:54:38.217Z,5.93
2018-10-01T20:57:06.545Z,4.30
2018-10-01T20:59:34.989Z,5.23
2018-10-01T21:02:03.387Z,6.37
2018-10-01T21:04:31.875Z,6.13
2018-10-01T21:07:00.189Z,6.17
2018-10-01T21:09:28.557Z,3.50
2018-10-01T21:11:56.943Z,4.17
2018-10-01T21:14:25.231Z,4.70
2018-10-01T21:16:53.588Z,6.27
2018-10-01T21:19:21.946Z,3.57
2018-10-01T21:21:50.496Z,6.63
2018-10-01T21:24:18.866Z,4.33
2018-10-01T21:26:47.185Z,5.00
2018-10-01T21:29:15.563Z,6.00
2018-10-01T21:31:44.195Z,6.53
2018-10-01T21:34:12.628Z,6.50
2018-10-01T21:36:40.967Z,4.50
2018-10-01T21:39:11.567Z,4.37
2018-10-01T21:41:39.875Z,5.80
2018-10-01T21:44:08.341Z,5.27
2018-10-01T21:46:36.853Z,6.80
2018-10-01T21:49:05.250Z,4.87
2018-10-01T21:51:33.582Z,5.27
2018-10-01T21:54:02.015Z,5.67
2018-10-01T21:56:30.356Z,4.27
2018-10-01T21:58:58.659Z,5.47
2018-10-01T22:01:32.440Z,7.20
2018-10-01T22:04:00.770Z,6.20
2018-10-01T22:06:29.170Z,4.10
2018-10-01T22:08:57.488Z,7.10
2018-10-01T22:11:25.952Z,7.13
2018-10-01T22:13:54.386Z,5.23
2018-10-01T22:16:22.684Z,5.43
2018-10-01T22:18:51.005Z,7.43
2018-10-01T22:21:19.458Z,7.23
2018-10-01T22:23:49.196Z,7.10
2018-10-01T22:26:17.609Z,5.47
2018-10-01T22:28:45.911Z,5.33
2018-10-01T22:31:14.229Z,5.87
2018-10-01T22:33:42.569Z,6.23
2018-10-01T22:36:10.940Z,4.80
2018-10-01T22:38:39.265Z,7.53
2018-10-01T22:41:07.973Z,8.00
2018-10-01T22:43:36.382Z,7.30
2018-10-01T22:46:05.811Z,13.40
2018-10-01T22:48:35.345Z,7.87
2018-10-01T22:51:03.744Z,6.37
2018-10-01T22:53:32.096Z,11.67
2018-10-01T22:56:00.466Z,10.83
2018-10-01T22:58:28.821Z,10.20
2018-10-01T23:00:57.237Z,10.50
2018-10-01T23:03:25.597Z,11.60
2018-10-01T23:05:53.927Z,8.90
2018-10-01T23:08:22.419Z,8.70
2018-10-01T23:10:50.762Z,9.83
2018-10-01T23:13:19.039Z,8.63
2018-10-01T23:15:47.817Z,10.33
2018-10-01T23:18:16.296Z,8.07
2018-10-01T23:20:44.624Z,11.30
2018-10-01T23:23:12.891Z,12.20
2018-10-01T23:25:41.224Z,15.73
2018-10-01T23:28:09.700Z,13.43
2018-10-01T23:30:38.039Z,7.47
2018-10-01T23:33:06.350Z,9.67
2018-10-01T23:35:34.664Z,9.93
2018-10-01T23:38:03.059Z,8.40
2018-10-01T23:40:31.590Z,11.73
2018-10-01T23:43:00.075Z,9.83
2018-10-01T23:45:28.359Z,9.67
2018-10-01T23:47:56.732Z,11.27
2018-10-01T23:50:25.078Z,12.43
2018-10-01T23:52:53.384Z,13.50
2018-10-01T23:55:21.698Z,12.53
2018-10-01T23:57:50.161Z,15.43
